Time;durP1;ratioP1;P1;durP2;ratioP2;P2;SDS_P1;SDS_P2;PMS_P1;PMS_P2;Temp;Humidity;BMP_temperature;BMP_pressure;BME280_temperature;BME280_humidity;BME280_pressure;Samples;Min_cycle;Max_cycle;Signal;HPM_P1;HPM_P2
2021/11/06 00:00:59;;;;;;;4.07;3.65;;;6.90;99.90;;;;;;5027276;28;20106;-78
2021/11/06 00:03:25;;;;;;;7.95;5.93;;;6.90;99.90;;;;;;5013970;28;20045;-77
2021/11/06 00:05:51;;;;;;;8.18;6.20;;;6.90;99.90;;;;;;5029674;28;20021;-78
2021/11/06 00:08:16;;;;;;;7.80;6.15;;;6.80;99.90;;;;;;5025776;28;20052;-79
2021/11/06 00:10:42;;;;;;;9.05;6.95;;;6.80;99.90;;;;;;5026441;28;20033;-78
2021/11/06 00:13:08;;;;;;;9.35;6.35;;;6.70;99.90;;;;;;5027644;28;20104;-78
2021/11/06 00:15:35;;;;;;;11.57;7.05;;;6.70;99.90;;;;;;5028707;28;20068;-79
2021/11/06 00:18:01;;;;;;;9.10;7.28;;;6.60;99.90;;;;;;5025979;28;20056;-79
2021/11/06 00:20:27;;;;;;;8.52;6.93;;;6.60;99.90;;;;;;5023933;28;20044;-79
2021/11/06 00:22:53;;;;;;;11.48;7.53;;;6.60;99.90;;;;;;5026981;28;20022;-80
2021/11/06 00:25:19;;;;;;;7.90;6.22;;;6.60;99.90;;;;;;5025103;28;20040;-79
2021/11/06 00:27:46;;;;;;;7.82;6.05;;;6.50;99.90;;;;;;5027023;28;20053;-78
2021/11/06 00:30:12;;;;;;;7.55;5.60;;;6.50;99.90;;;;;;5007995;28;20034;-78
2021/11/06 00:32:39;;;;;;;7.60;5.50;;;6.50;99.90;;;;;;5024298;28;20030;-79
2021/11/06 00:35:08;;;;;;;10.52;7.90;;;6.60;99.90;;;;;;5026343;28;20429;-79
2021/11/06 00:37:34;;;;;;;12.00;8.02;;;6.60;99.90;;;;;;5005903;28;20106;-79
2021/11/06 00:40:00;;;;;;;9.68;7.35;;;6.60;99.90;;;;;;5026068;28;20459;-79
2021/11/06 00:42:26;;;;;;;10.45;7.30;;;6.60;99.90;;;;;;5026497;28;20116;-78
2021/11/06 00:44:51;;;;;;;8.73;6.93;;;6.60;99.90;;;;;;5007133;28;20091;-78
2021/11/06 00:47:17;;;;;;;8.93;6.13;;;6.60;99.90;;;;;;5023981;28;20022;-79
2021/11/06 00:49:43;;;;;;;8.85;7.13;;;6.70;99.90;;;;;;5006461;28;20163;-77
2021/11/06 00:52:09;;;;;;;7.57;5.95;;;6.60;99.90;;;;;;5023284;28;20106;-77
2021/11/06 00:54:35;;;;;;;7.32;5.82;;;6.60;99.90;;;;;;5006768;28;20121;-77
2021/11/06 00:57:01;;;;;;;8.40;6.10;;;6.60;99.90;;;;;;5026121;28;20486;-78
2021/11/06 00:59:26;;;;;;;9.13;7.00;;;6.60;99.90;;;;;;5026305;28;20044;-78
2021/11/06 01:01:53;;;;;;;11.05;7.95;;;6.60;99.90;;;;;;5025577;28;20022;-79
2021/11/06 01:04:19;;;;;;;10.52;8.38;;;6.60;99.90;;;;;;5009894;28;20098;-79
2021/11/06 01:06:45;;;;;;;11.32;8.18;;;6.60;99.90;;;;;;5024927;28;20060;-79
2021/11/06 01:09:10;;;;;;;11.63;8.52;;;6.60;99.90;;;;;;5025761;28;20077;-80
2021/11/06 01:11:37;;;;;;;13.13;9.38;;;6.60;99.90;;;;;;5024201;28;20109;-79
2021/11/06 01:14:03;;;;;;;12.52;9.40;;;6.60;99.90;;;;;;5024991;28;20382;-79
2021/11/06 01:16:30;;;;;;;10.25;7.20;;;6.60;99.90;;;;;;5026188;28;20030;-79
2021/11/06 01:18:56;;;;;;;9.90;7.70;;;6.60;99.90;;;;;;5024474;28;20018;-79
2021/11/06 01:21:21;;;;;;;10.35;7.45;;;6.60;99.90;;;;;;5028421;28;20453;-78
2021/11/06 01:23:47;;;;;;;8.88;7.55;;;6.50;99.90;;;;;;5029277;28;20018;-78
2021/11/06 01:26:13;;;;;;;8.35;6.75;;;6.50;99.90;;;;;;5012698;28;20422;-78
2021/11/06 01:28:39;;;;;;;7.53;5.72;;;6.50;99.90;;;;;;5030741;28;20469;-79
2021/11/06 01:31:05;;;;;;;6.45;5.15;;;6.50;99.90;;;;;;5031455;28;20117;-78
2021/11/06 01:33:31;;;;;;;7.95;5.90;;;6.50;99.90;;;;;;5033251;28;20073;-77
2021/11/06 01:35:56;;;;;;;8.85;5.78;;;6.40;99.90;;;;;;5030376;28;20049;-77
2021/11/06 01:38:22;;;;;;;8.40;6.28;;;6.40;99.90;;;;;;5031141;28;20038;-77
2021/11/06 01:40:48;;;;;;;7.35;5.75;;;6.40;99.90;;;;;;5033218;28;20030;-78
2021/11/06 01:43:15;;;;;;;9.90;7.53;;;6.40;99.90;;;;;;5030319;28;20045;-79
2021/11/06 01:45:41;;;;;;;8.75;7.07;;;6.40;99.90;;;;;;5030706;28;20026;-78
2021/11/06 01:48:06;;;;;;;7.97;5.95;;;6.40;99.90;;;;;;5028501;28;20026;-78
2021/11/06 01:50:32;;;;;;;7.13;5.82;;;6.40;99.90;;;;;;5029525;28;20049;-79
2021/11/06 01:52:58;;;;;;;7.25;5.50;;;6.30;99.90;;;;;;5029631;28;20033;-79
2021/11/06 01:55:24;;;;;;;9.18;5.82;;;6.40;99.90;;;;;;5016055;28;20120;-78
2021/11/06 01:57:51;;;;;;;7.57;5.40;;;6.40;99.90;;;;;;5016561;28;20151;-80
2021/11/06 02:00:24;;;;;;;7.53;5.63;;;6.40;99.90;;;;;;5034115;28;20028;-77
2021/11/06 02:02:51;;;;;;;7.57;5.25;;;6.40;99.90;;;;;;5031262;28;20030;-79
2021/11/06 02:05:17;;;;;;;7.28;5.30;;;6.40;99.90;;;;;;5012166;28;20090;-77
2021/11/06 02:07:44;;;;;;;6.95;4.80;;;6.40;99.90;;;;;;5010872;28;20427;-77
2021/11/06 02:10:10;;;;;;;6.43;4.82;;;6.40;99.90;;;;;;5029268;28;20068;-78
2021/11/06 02:12:38;;;;;;;7.97;5.20;;;6.40;99.90;;;;;;5029457;28;20032;-78
2021/11/06 02:15:05;;;;;;;5.80;4.80;;;6.40;99.90;;;;;;5024057;28;20522;-78
2021/11/06 02:17:31;;;;;;;6.68;5.50;;;6.40;99.90;;;;;;5023935;28;20037;-78
2021/11/06 02:19:57;;;;;;;6.13;4.50;;;6.40;99.90;;;;;;5029326;28;20060;-78
2021/11/06 02:22:23;;;;;;;4.95;4.28;;;6.40;99.90;;;;;;5026917;28;20026;-77
2021/11/06 02:24:49;;;;;;;6.97;4.47;;;6.40;99.90;;;;;;5030162;28;20105;-78
2021/11/06 02:27:15;;;;;;;6.20;4.05;;;6.40;99.90;;;;;;5029757;28;20017;-78
2021/11/06 02:29:40;;;;;;;6.28;5.10;;;6.40;99.90;;;;;;5027844;28;20430;-78
2021/11/06 02:32:08;;;;;;;6.45;4.78;;;6.40;99.90;;;;;;5027137;28;20039;-78
2021/11/06 02:34:34;;;;;;;6.85;4.70;;;6.30;99.90;;;;;;5026724;28;20021;-78
2021/11/06 02:37:00;;;;;;;5.20;4.05;;;6.30;99.90;;;;;;5027171;28;20026;-78
2021/11/06 02:39:26;;;;;;;5.38;4.18;;;6.30;99.90;;;;;;5024701;28;20021;-77
2021/11/06 02:42:07;;;;;;;4.90;3.78;;;6.30;99.90;;;;;;5025178;28;20033;-77
2021/11/06 02:44:34;;;;;;;4.15;3.63;;;6.20;99.90;;;;;;5022040;28;20075;-78
2021/11/06 02:47:01;;;;;;;5.55;3.97;;;6.20;99.90;;;;;;5023165;28;20079;-77
2021/11/06 02:49:27;;;;;;;4.93;4.00;;;6.20;99.90;;;;;;5023566;28;20030;-78
2021/11/06 02:51:53;;;;;;;5.25;3.95;;;6.20;99.90;;;;;;5008833;28;20033;-78
2021/11/06 02:54:19;;;;;;;6.38;4.65;;;6.30;99.90;;;;;;5027104;28;20119;-78
2021/11/06 02:56:45;;;;;;;5.93;4.40;;;6.20;99.90;;;;;;5026450;28;20125;-78
2021/11/06 02:59:11;;;;;;;6.40;4.75;;;6.20;99.90;;;;;;5027119;28;20447;-77
2021/11/06 03:01:37;;;;;;;6.13;4.90;;;6.10;99.90;;;;;;5025640;28;20033;-77
2021/11/06 03:04:10;;;;;;;5.88;4.53;;;6.10;99.90;;;;;;5026751;28;20052;-77
2021/11/06 03:06:36;;;;;;;4.97;4.18;;;6.10;99.90;;;;;;5024748;28;20026;-78
2021/11/06 03:09:03;;;;;;;5.15;4.40;;;6.00;99.90;;;;;;5023912;28;20030;-77
2021/11/06 03:11:30;;;;;;;5.00;3.90;;;6.00;99.90;;;;;;5025101;28;20030;-77
2021/11/06 03:13:57;;;;;;;6.90;4.63;;;6.00;99.90;;;;;;5008803;28;20036;-79
2021/11/06 03:16:23;;;;;;;5.68;4.38;;;6.00;99.90;;;;;;5002120;28;20112;-79
2021/11/06 03:18:49;;;;;;;6.00;4.25;;;5.90;99.90;;;;;;5027730;28;20044;-78
2021/11/06 03:21:17;;;;;;;4.93;3.90;;;5.90;99.90;;;;;;5025170;28;20025;-78
2021/11/06 03:23:43;;;;;;;5.88;4.20;;;5.90;99.90;;;;;;5040914;28;20021;-78
2021/11/06 03:26:09;;;;;;;6.15;4.25;;;5.90;99.90;;;;;;5041898;28;20105;-77
2021/11/06 03:28:35;;;;;;;5.57;3.75;;;5.90;99.90;;;;;;5040776;28;20026;-78
2021/11/06 03:31:01;;;;;;;5.32;4.53;;;6.00;99.90;;;;;;5007087;28;20436;-78
2021/11/06 03:33:27;;;;;;;5.78;4.00;;;6.00;99.90;;;;;;5008818;28;20041;-79
2021/11/06 03:35:52;;;;;;;5.38;4.13;;;6.00;99.90;;;;;;5025969;28;20038;-78
2021/11/06 03:38:18;;;;;;;6.13;3.28;;;6.00;99.90;;;;;;5028355;28;20038;-78
2021/11/06 03:40:44;;;;;;;6.63;4.32;;;6.00;99.90;;;;;;5025022;28;20026;-78
2021/11/06 03:43:10;;;;;;;5.07;3.67;;;6.00;99.90;;;;;;5020297;28;20026;-78
2021/11/06 03:45:37;;;;;;;5.40;3.50;;;6.00;99.90;;;;;;5022427;28;20355;-77
2021/11/06 03:48:03;;;;;;;4.82;3.75;;;5.90;99.90;;;;;;5022586;28;20431;-78
2021/11/06 03:50:29;;;;;;;7.30;4.40;;;5.90;99.90;;;;;;5008961;28;20100;-78
2021/11/06 03:52:54;;;;;;;6.15;4.65;;;5.90;99.90;;;;;;5013140;28;20102;-78
2021/11/06 03:55:20;;;;;;;5.68;4.22;;;5.90;99.90;;;;;;5016744;28;20037;-77
2021/11/06 03:57:46;;;;;;;7.90;4.85;;;5.90;99.90;;;;;;5027877;28;20030;-78
2021/11/06 04:00:15;;;;;;;7.55;5.40;;;5.90;99.90;;;;;;5021871;28;20086;-77
2021/11/06 04:02:42;;;;;;;7.43;4.97;;;5.90;99.90;;;;;;5033623;28;20026;-77
2021/11/06 04:05:08;;;;;;;6.35;5.03;;;6.00;99.90;;;;;;5029698;28;20113;-77
2021/11/06 04:07:34;;;;;;;6.43;5.00;;;6.00;99.90;;;;;;5026437;28;20029;-78
2021/11/06 04:10:00;;;;;;;6.38;5.10;;;6.00;99.90;;;;;;5023697;28;20224;-77
2021/11/06 04:12:26;;;;;;;6.47;4.85;;;6.00;99.90;;;;;;5029129;28;20399;-78
2021/11/06 04:14:51;;;;;;;7.18;5.25;;;6.00;99.90;;;;;;5029889;28;20415;-77
2021/11/06 04:17:17;;;;;;;5.78;4.47;;;6.00;99.90;;;;;;5015673;28;20057;-77
2021/11/06 04:19:43;;;;;;;5.68;4.43;;;6.00;99.90;;;;;;5023404;28;20083;-77
2021/11/06 04:22:09;;;;;;;6.00;4.43;;;6.10;99.90;;;;;;5011942;28;20049;-77
2021/11/06 04:24:35;;;;;;;6.72;4.80;;;6.00;99.90;;;;;;5012453;28;20072;-78
2021/11/06 04:27:02;;;;;;;7.05;5.22;;;6.00;99.90;;;;;;5008184;28;20021;-78
2021/11/06 04:29:28;;;;;;;5.88;4.85;;;6.00;99.90;;;;;;5007087;28;20048;-78
2021/11/06 04:31:54;;;;;;;5.72;4.75;;;6.00;99.90;;;;;;5031722;28;20045;-78
2021/11/06 04:34:20;;;;;;;6.53;5.53;;;5.90;99.90;;;;;;5019941;28;20033;-78
2021/11/06 04:36:46;;;;;;;6.90;4.65;;;5.80;99.90;;;;;;5038375;28;20454;-78
2021/11/06 04:39:12;;;;;;;7.43;5.60;;;5.70;99.90;;;;;;5032347;28;20033;-78
2021/11/06 04:41:37;;;;;;;6.53;5.07;;;5.60;99.90;;;;;;5026177;28;20153;-78
2021/11/06 04:44:04;;;;;;;7.35;5.03;;;5.50;99.90;;;;;;5022865;28;20056;-78
2021/11/06 04:46:30;;;;;;;7.28;5.05;;;5.50;99.90;;;;;;5026257;28;20029;-78
2021/11/06 04:48:56;;;;;;;7.72;5.32;;;5.40;99.90;;;;;;5001576;28;20022;-78
2021/11/06 04:51:21;;;;;;;8.50;5.78;;;5.30;99.90;;;;;;5009683;28;20025;-78
2021/11/06 04:53:47;;;;;;;7.07;5.20;;;5.20;99.90;;;;;;5027874;28;20029;-79
2021/11/06 04:56:13;;;;;;;8.50;5.95;;;5.20;99.90;;;;;;5028590;28;20029;-79
2021/11/06 04:58:39;;;;;;;6.07;4.93;;;5.10;99.90;;;;;;5026319;28;20029;-77
2021/11/06 05:01:05;;;;;;;8.02;5.57;;;5.10;99.90;;;;;;5009642;28;20132;-79
2021/11/06 05:03:30;;;;;;;10.20;6.18;;;5.00;99.90;;;;;;5024612;28;20085;-78
2021/11/06 05:05:56;;;;;;;10.43;7.22;;;5.00;99.90;;;;;;5022897;28;20029;-77
2021/11/06 05:08:22;;;;;;;7.40;5.75;;;4.90;99.90;;;;;;5026413;28;20466;-78
2021/11/06 05:10:48;;;;;;;8.90;6.47;;;4.90;99.90;;;;;;5022492;28;20044;-78
2021/11/06 05:13:14;;;;;;;8.65;6.18;;;4.90;99.90;;;;;;5026728;28;20117;-78
2021/11/06 05:15:40;;;;;;;8.13;5.60;;;4.90;99.90;;;;;;5019850;28;20095;-78
2021/11/06 05:18:06;;;;;;;7.68;5.22;;;4.80;99.90;;;;;;5012563;28;20022;-77
2021/11/06 05:20:32;;;;;;;6.70;4.82;;;4.80;99.90;;;;;;5027807;28;20155;-78
2021/11/06 05:22:58;;;;;;;7.28;5.10;;;4.80;99.90;;;;;;5029719;28;20029;-77
2021/11/06 05:25:24;;;;;;;7.28;4.93;;;4.70;99.90;;;;;;5027109;28;20037;-77
2021/11/06 05:27:50;;;;;;;6.32;5.20;;;4.60;99.90;;;;;;5007546;28;20433;-78
2021/11/06 05:30:16;;;;;;;9.27;5.55;;;4.60;99.90;;;;;;5016667;22;20415;-82
2021/11/06 05:32:43;;;;;;;7.38;5.30;;;4.50;99.90;;;;;;4971446;28;20027;-83
2021/11/06 05:35:10;;;;;;;6.90;5.28;;;4.50;99.90;;;;;;4971222;28;20022;-82
2021/11/06 05:37:37;;;;;;;6.88;5.28;;;4.50;99.90;;;;;;4987524;28;20030;-82
2021/11/06 05:40:05;;;;;;;6.65;5.03;;;4.50;99.90;;;;;;4980448;28;20027;-81
2021/11/06 05:42:32;;;;;;;5.85;4.25;;;4.50;99.90;;;;;;4979599;28;20109;-82
2021/11/06 05:44:58;;;;;;;7.10;4.63;;;4.50;99.90;;;;;;4961796;28;20022;-82
2021/11/06 05:47:24;;;;;;;7.00;4.18;;;4.50;99.90;;;;;;4976869;28;20038;-82
2021/11/06 05:49:49;;;;;;;5.60;4.32;;;4.40;99.90;;;;;;4970697;28;20027;-83
2021/11/06 05:52:15;;;;;;;4.43;3.88;;;4.50;99.90;;;;;;4960439;28;20037;-83
2021/11/06 05:54:41;;;;;;;5.40;4.25;;;4.40;99.90;;;;;;4981210;28;20054;-82
2021/11/06 05:57:07;;;;;;;5.05;3.47;;;4.40;99.90;;;;;;4975231;28;20031;-83
2021/11/06 05:59:33;;;;;;;6.45;4.28;;;4.30;99.90;;;;;;4964416;28;20027;-80
2021/11/06 06:01:58;;;;;;;5.03;4.00;;;4.30;99.90;;;;;;4979052;28;20041;-81
2021/11/06 06:04:24;;;;;;;6.93;4.45;;;4.30;99.90;;;;;;4975329;28;20027;-82
2021/11/06 06:06:50;;;;;;;6.65;4.10;;;4.30;99.90;;;;;;4980381;28;20424;-82
2021/11/06 06:09:16;;;;;;;5.22;3.75;;;4.30;99.90;;;;;;4979319;28;20103;-82
2021/11/06 06:11:41;;;;;;;4.95;3.67;;;4.30;99.90;;;;;;4967586;28;20023;-82
2021/11/06 06:14:07;;;;;;;4.13;3.35;;;4.30;99.90;;;;;;4955307;28;20023;-80
2021/11/06 06:16:33;;;;;;;4.07;3.47;;;4.30;99.90;;;;;;4983148;28;20578;-82
2021/11/06 06:18:58;;;;;;;5.47;3.58;;;4.30;99.90;;;;;;4963638;29;20023;-83
2021/11/06 06:21:24;;;;;;;4.10;3.20;;;4.30;99.90;;;;;;4954696;28;20037;-82
2021/11/06 06:23:50;;;;;;;5.32;3.80;;;4.30;99.90;;;;;;4982598;28;20071;-81
2021/11/06 06:26:16;;;;;;;5.95;3.63;;;4.30;99.90;;;;;;4949389;29;20038;-82
2021/11/06 06:28:41;;;;;;;6.00;3.95;;;4.30;99.90;;;;;;4978008;28;20077;-82
2021/11/06 06:31:08;;;;;;;4.43;3.33;;;4.30;99.90;;;;;;4980328;28;20026;-83
2021/11/06 06:33:34;;;;;;;4.32;3.13;;;4.30;99.90;;;;;;4968408;28;20027;-82
2021/11/06 06:36:00;;;;;;;3.53;2.88;;;4.30;99.90;;;;;;4967144;28;20033;-81
2021/11/06 06:38:25;;;;;;;3.13;2.67;;;4.40;99.90;;;;;;4984746;28;20027;-82
2021/11/06 06:40:51;;;;;;;3.88;3.15;;;4.40;99.90;;;;;;4983564;28;20027;-83
2021/11/06 06:43:17;;;;;;;5.85;3.28;;;4.40;99.90;;;;;;4976725;28;20363;-83
2021/11/06 06:45:43;;;;;;;3.40;2.80;;;4.40;99.90;;;;;;4981372;28;20027;-82
2021/11/06 06:48:09;;;;;;;3.60;2.70;;;4.40;99.90;;;;;;4980839;28;20039;-81
2021/11/06 06:50:34;;;;;;;3.83;2.90;;;4.40;99.90;;;;;;4983649;28;20027;-81
2021/11/06 06:53:00;;;;;;;4.90;3.17;;;4.40;99.90;;;;;;4978337;28;20086;-81
2021/11/06 06:55:26;;;;;;;3.70;3.00;;;4.50;99.90;;;;;;4982736;28;20056;-81
2021/11/06 06:57:52;;;;;;;2.60;2.40;;;4.50;99.90;;;;;;4977926;28;20037;-82
2021/11/06 07:00:18;;;;;;;3.75;2.63;;;4.60;99.90;;;;;;4967425;28;20511;-83
2021/11/06 07:02:44;;;;;;;4.00;2.92;;;4.70;99.90;;;;;;4973189;28;20051;-83
2021/11/06 07:05:11;;;;;;;3.15;2.47;;;4.80;99.90;;;;;;4981916;28;20096;-82
2021/11/06 07:07:37;;;;;;;2.83;2.30;;;4.80;99.90;;;;;;4981353;28;20396;-82
2021/11/06 07:10:05;;;;;;;3.88;2.75;;;4.90;99.90;;;;;;4966500;28;20098;-82
2021/11/06 07:12:32;;;;;;;5.07;3.13;;;4.90;99.90;;;;;;4968796;28;20059;-83
2021/11/06 07:14:58;;;;;;;3.55;3.00;;;5.00;99.90;;;;;;4985729;28;20023;-82
2021/11/06 07:17:24;;;;;;;4.50;3.13;;;5.00;99.90;;;;;;4981509;28;20094;-83
2021/11/06 07:19:50;;;;;;;4.10;2.72;;;5.10;99.90;;;;;;4950749;28;20429;-83
2021/11/06 07:22:16;;;;;;;3.55;3.08;;;5.20;99.90;;;;;;4984188;28;20066;-82
2021/11/06 07:24:42;;;;;;;3.67;2.60;;;5.30;99.90;;;;;;4980440;28;20081;-82
2021/11/06 07:27:08;;;;;;;3.00;2.70;;;5.30;99.90;;;;;;4987302;28;20032;-83
2021/11/06 07:29:36;;;;;;;3.38;2.50;;;5.40;99.90;;;;;;4951516;29;20076;-83
2021/11/06 07:32:02;;;;;;;3.55;2.45;;;5.50;99.90;;;;;;4962244;28;20060;-83
2021/11/06 07:34:28;;;;;;;4.80;3.10;;;5.60;99.90;;;;;;4989408;28;20099;-82
2021/11/06 07:36:54;;;;;;;3.90;2.08;;;6.00;99.90;;;;;;4989188;28;20031;-82
2021/11/06 07:39:20;;;;;;;3.95;2.30;;;6.30;99.90;;;;;;4969158;28;20069;-82
2021/11/06 07:41:46;;;;;;;3.50;2.47;;;6.50;99.90;;;;;;4995010;28;20026;-83
2021/11/06 07:44:12;;;;;;;3.90;2.70;;;6.60;99.90;;;;;;4985018;28;20023;-82
2021/11/06 07:46:39;;;;;;;4.78;2.88;;;6.60;99.90;;;;;;4971830;28;20007;-80
2021/11/06 07:49:05;;;;;;;4.57;2.67;;;6.50;99.90;;;;;;4961897;28;20111;-82
2021/11/06 07:51:31;;;;;;;2.78;2.42;;;6.50;99.90;;;;;;4959046;28;20077;-82
2021/11/06 07:53:57;;;;;;;2.90;2.08;;;7.30;99.90;;;;;;4978099;28;20051;-81
2021/11/06 07:56:23;;;;;;;4.05;2.30;;;8.30;99.00;;;;;;4962372;28;20023;-82
2021/11/06 07:58:49;;;;;;;2.83;2.10;;;8.60;96.00;;;;;;4986058;28;20041;-83
2021/11/06 08:01:15;;;;;;;2.70;2.05;;;8.30;94.80;;;;;;4982924;28;20054;-83
2021/11/06 08:03:41;;;;;;;3.05;2.53;;;7.90;95.10;;;;;;4967889;28;20026;-83
2021/11/06 08:06:07;;;;;;;4.65;3.17;;;7.80;95.40;;;;;;4977006;28;20038;-82
2021/11/06 08:08:33;;;;;;;4.68;3.60;;;7.60;95.70;;;;;;4946126;28;20058;-83
2021/11/06 08:10:59;;;;;;;3.58;3.00;;;7.50;95.90;;;;;;4968693;28;20025;-83
2021/11/06 08:13:26;;;;;;;5.60;3.22;;;7.50;96.00;;;;;;4982729;28;20054;-82
2021/11/06 08:15:52;;;;;;;4.03;3.17;;;7.50;96.00;;;;;;4982619;28;20057;-83
2021/11/06 08:18:18;;;;;;;4.45;3.38;;;7.40;95.80;;;;;;4983818;28;20115;-83
2021/11/06 08:20:43;;;;;;;5.30;3.00;;;7.50;96.00;;;;;;4966173;28;20034;-84
2021/11/06 08:23:09;;;;;;;4.78;3.40;;;7.50;95.80;;;;;;4970872;28;20097;-82
2021/11/06 08:25:35;;;;;;;5.28;3.70;;;7.60;95.40;;;;;;4946598;29;20020;-83
2021/11/06 08:28:01;;;;;;;4.45;3.35;;;7.70;95.00;;;;;;4949788;29;20027;-84
2021/11/06 08:30:27;;;;;;;4.72;3.75;;;7.80;95.10;;;;;;4962975;28;20035;-82
2021/11/06 08:32:56;;;;;;;5.25;3.83;;;7.90;95.00;;;;;;4947017;29;20031;-81
2021/11/06 08:35:25;;;;;;;3.83;3.38;;;8.10;94.60;;;;;;4955678;28;20030;-81
2021/11/06 08:37:51;;;;;;;4.43;3.35;;;8.10;94.20;;;;;;4984775;28;20030;-81
2021/11/06 08:40:17;;;;;;;5.05;3.42;;;8.30;93.90;;;;;;4981256;28;20038;-81
2021/11/06 08:42:43;;;;;;;4.57;3.30;;;8.40;93.60;;;;;;4965759;28;20111;-82
2021/11/06 08:45:10;;;;;;;4.35;3.47;;;8.50;93.10;;;;;;4975018;28;20030;-82
2021/11/06 08:47:37;;;;;;;5.32;3.95;;;8.60;92.80;;;;;;4983525;28;20034;-84
2021/11/06 08:50:09;;;;;;;7.50;6.15;;;8.70;92.40;;;;;;4983745;28;20022;-81
2021/11/06 08:52:36;;;;;;;9.88;6.97;;;8.60;92.20;;;;;;4973617;28;20026;-82
2021/11/06 08:55:04;;;;;;;8.02;5.82;;;8.40;92.20;;;;;;4966539;28;20098;-83
2021/11/06 08:57:30;;;;;;;7.45;5.55;;;8.40;92.80;;;;;;4968825;28;20097;-83
2021/11/06 09:00:00;;;;;;;7.75;5.90;;;8.60;93.10;;;;;;4987770;28;20436;-82
2021/11/06 09:02:26;;;;;;;9.90;7.43;;;8.70;92.60;;;;;;4979346;28;20115;-84
2021/11/06 09:04:54;;;;;;;9.50;7.03;;;8.70;91.90;;;;;;4971125;28;20023;-84
2021/11/06 09:07:20;;;;;;;12.98;9.88;;;8.80;92.10;;;;;;4976595;28;20380;-82
2021/11/06 09:09:46;;;;;;;14.52;12.13;;;8.90;91.70;;;;;;4982194;28;20034;-82
2021/11/06 09:12:12;;;;;;;17.05;12.65;;;8.90;91.60;;;;;;4964097;28;20050;-83
2021/11/06 09:14:39;;;;;;;15.13;11.25;;;8.90;91.60;;;;;;4977155;28;20027;-83
2021/11/06 09:17:05;;;;;;;11.73;9.82;;;9.20;91.90;;;;;;4966789;28;20027;-83
2021/11/06 09:19:30;;;;;;;11.13;8.52;;;9.80;91.50;;;;;;4984337;28;20101;-83
2021/11/06 09:21:56;;;;;;;10.18;7.97;;;10.20;90.50;;;;;;4981904;28;20071;-82
2021/11/06 09:24:22;;;;;;;11.90;8.75;;;10.30;90.00;;;;;;4965696;28;20027;-83
2021/11/06 09:26:48;;;;;;;9.75;8.07;;;10.50;89.60;;;;;;4981438;28;20113;-82
2021/11/06 09:29:15;;;;;;;8.18;6.95;;;11.20;88.40;;;;;;4982149;28;20090;-82
2021/11/06 09:31:42;;;;;;;8.90;7.70;;;11.90;84.20;;;;;;4966037;28;20034;-81
2021/11/06 09:34:09;;;;;;;13.40;8.73;;;11.80;81.70;;;;;;4968939;28;20101;-84
2021/11/06 09:36:36;;;;;;;10.65;8.55;;;11.30;81.20;;;;;;4981855;28;20491;-83
2021/11/06 09:39:05;;;;;;;10.75;8.38;;;10.90;81.50;;;;;;4962064;28;20085;-83
2021/11/06 09:41:31;;;;;;;10.20;7.65;;;10.60;81.60;;;;;;4984023;28;20027;-82
2021/11/06 09:43:58;;;;;;;8.85;6.82;;;10.30;82.60;;;;;;4955549;28;20118;-83
2021/11/06 09:46:25;;;;;;;7.95;5.47;;;10.10;82.60;;;;;;4984865;28;20054;-84
2021/11/06 09:48:50;;;;;;;6.75;5.70;;;10.10;83.60;;;;;;4958461;29;20075;-82
2021/11/06 09:51:18;;;;;;;8.20;5.78;;;10.20;83.00;;;;;;4967648;29;20035;-83
2021/11/06 09:53:46;;;;;;;6.55;5.38;;;10.20;81.30;;;;;;4978679;28;20047;-84
2021/11/06 09:56:16;;;;;;;6.38;4.72;;;10.30;81.30;;;;;;4986121;28;20019;-82
2021/11/06 09:58:43;;;;;;;6.30;5.40;;;10.50;80.90;;;;;;4973747;28;20023;-83
2021/11/06 10:01:10;;;;;;;7.03;5.30;;;10.70;79.70;;;;;;4948819;29;20078;-84
2021/11/06 10:03:36;;;;;;;6.88;5.32;;;10.60;78.80;;;;;;4976288;28;20023;-84
2021/11/06 10:06:05;;;;;;;5.55;4.65;;;10.50;79.00;;;;;;4972075;28;20062;-83
2021/11/06 10:08:39;;;;;;;5.70;3.63;;;10.60;79.20;;;;;;4967674;28;20027;-83
2021/11/06 10:11:11;;;;;;;5.07;4.15;;;10.80;78.70;;;;;;4993220;28;20053;-81
2021/11/06 10:14:00;;;;;;;4.85;4.18;;;10.90;77.70;;;;;;4983960;28;20035;-81
2021/11/06 10:16:42;;;;;;;4.35;3.53;;;11.10;76.70;;;;;;4968285;28;20034;-83
2021/11/06 10:19:32;;;;;;;5.25;3.97;;;11.20;75.50;;;;;;4969080;28;20034;-83
2021/11/06 10:22:13;;;;;;;4.78;4.05;;;11.20;74.50;;;;;;4986942;28;20512;-84
2021/11/06 10:24:42;;;;;;;5.45;3.85;;;11.00;75.00;;;;;;4965394;29;20090;-83
2021/11/06 10:27:34;;;;;;;4.97;4.07;;;10.90;75.00;;;;;;4964951;29;20027;-83
2021/11/06 10:30:13;;;;;;;6.00;4.15;;;11.00;75.40;;;;;;4965578;28;20051;-84
2021/11/06 10:33:15;;;;;;;3.97;3.15;;;11.10;74.80;;;;;;4969273;28;20090;-84
2021/11/06 10:35:52;;;;;;;5.15;3.75;;;11.10;75.00;;;;;;4968353;28;20081;-82
2021/11/06 10:38:21;;;;;;;6.15;4.80;;;11.10;74.40;;;;;;4980351;28;20381;-83
2021/11/06 10:40:49;;;;;;;4.13;3.70;;;11.20;73.00;;;;;;4946003;29;20114;-82
2021/11/06 10:43:18;;;;;;;4.53;4.05;;;11.20;73.60;;;;;;4953345;28;20090;-83
2021/11/06 10:45:55;;;;;;;5.50;3.60;;;11.20;73.10;;;;;;4983052;28;20127;-83
2021/11/06 10:48:23;;;;;;;3.60;3.30;;;10.90;73.80;;;;;;4986557;28;20031;-85
2021/11/06 10:51:02;;;;;;;4.22;3.83;;;10.90;74.30;;;;;;4966904;28;20122;-84
2021/11/06 10:53:31;;;;;;;8.20;4.35;;;10.90;74.40;;;;;;4967347;28;20084;-80
2021/11/06 10:55:59;;;;;;;5.07;4.13;;;10.90;73.30;;;;;;4952866;29;20111;-82
2021/11/06 10:58:45;;;;;;;5.15;4.30;;;10.80;74.80;;;;;;4950832;28;20172;-82
2021/11/06 11:01:13;;;;;;;5.30;4.50;;;10.70;75.60;;;;;;4968623;29;20481;-84
2021/11/06 11:03:42;;;;;;;5.45;4.55;;;10.40;75.90;;;;;;4972891;28;20105;-82
2021/11/06 11:06:21;;;;;;;7.43;5.65;;;10.20;76.60;;;;;;4966752;28;20027;-82
2021/11/06 11:08:50;;;;;;;6.25;4.65;;;10.10;76.80;;;;;;4986414;28;20031;-82
2021/11/06 11:11:21;;;;;;;8.48;6.30;;;10.00;77.20;;;;;;4968661;28;20026;-83
2021/11/06 11:13:53;;;;;;;6.63;5.78;;;10.10;77.70;;;;;;4982445;28;20054;-82
2021/11/06 11:16:20;;;;;;;7.60;4.85;;;10.20;77.80;;;;;;4972503;28;20034;-84
2021/11/06 11:18:48;;;;;;;6.97;5.95;;;10.30;77.00;;;;;;4982529;28;20034;-82
2021/11/06 11:21:18;;;;;;;7.22;5.47;;;10.40;76.30;;;;;;4982948;28;20019;-84
2021/11/06 11:23:50;;;;;;;8.60;5.75;;;10.50;75.30;;;;;;4984139;28;20093;-84
2021/11/06 11:26:18;;;;;;;5.93;5.07;;;10.60;75.80;;;;;;4986436;28;20019;-82
2021/11/06 11:28:46;;;;;;;5.82;3.83;;;10.80;75.10;;;;;;5014116;23;20059;-76
2021/11/06 11:31:13;;;;;;;4.50;3.80;;;11.10;75.00;;;;;;5039720;28;20045;-76
2021/11/06 11:33:40;;;;;;;7.43;5.20;;;11.30;74.30;;;;;;5028377;28;20081;-76
2021/11/06 11:36:08;;;;;;;5.30;4.18;;;11.40;72.80;;;;;;5014797;28;20018;-77
2021/11/06 11:38:36;;;;;;;5.88;4.75;;;11.60;73.30;;;;;;5015111;28;20263;-77
2021/11/06 11:41:20;;;;;;;7.57;5.53;;;11.80;72.60;;;;;;5034078;28;20021;-77
2021/11/06 11:44:23;;;;;;;6.28;5.22;;;11.90;71.10;;;;;;5033624;28;20014;-77
2021/11/06 11:47:31;;;;;;;8.65;5.20;;;11.80;69.30;;;;;;5016534;28;20339;-77
2021/11/06 11:50:00;;;;;;;5.68;5.07;;;11.70;68.90;;;;;;4972111;28;20030;-76
2021/11/06 11:52:36;;;;;;;5.20;4.70;;;11.50;70.10;;;;;;5007010;28;20415;-79
2021/11/06 11:55:09;;;;;;;5.43;4.93;;;11.60;70.60;;;;;;5015630;28;20429;-77
2021/11/06 11:57:37;;;;;;;6.22;5.38;;;11.60;70.10;;;;;;5035456;28;20053;-76
2021/11/06 12:00:18;;;;;;;6.22;5.63;;;11.70;70.10;;;;;;5036572;28;20018;-76
2021/11/06 12:03:08;;;;;;;8.60;5.70;;;11.70;70.50;;;;;;5038743;28;20024;-75
2021/11/06 12:05:45;;;;;;;6.53;5.40;;;11.60;70.40;;;;;;5019679;28;20053;-76
2021/11/06 12:08:11;;;;;;;6.38;5.72;;;11.10;70.60;;;;;;5035976;28;20037;-77
2021/11/06 12:11:00;;;;;;;7.03;5.85;;;10.70;73.00;;;;;;5035367;28;20080;-77
2021/11/06 12:13:30;;;;;;;7.78;5.97;;;10.30;74.00;;;;;;5035239;28;20113;-76
2021/11/06 12:16:05;;;;;;;5.53;4.97;;;10.00;74.70;;;;;;5036204;28;20029;-75
2021/11/06 12:18:34;;;;;;;5.78;5.18;;;9.70;75.40;;;;;;5035453;28;20037;-76
2021/11/06 12:21:19;;;;;;;6.18;5.57;;;9.50;77.00;;;;;;5016578;28;20025;-76
2021/11/06 12:23:53;;;;;;;6.97;5.35;;;9.40;77.30;;;;;;5036576;28;20025;-77
2021/11/06 12:26:25;;;;;;;6.38;4.90;;;9.30;77.90;;;;;;5035478;28;20030;-76
2021/11/06 12:29:13;;;;;;;;;;;9.20;79.00;;;;;;5035369;28;20017;-75
2021/11/06 12:31:43;;;;;;;5.93;3.70;;;9.10;79.60;;;;;;5003679;28;19995;-76
2021/11/06 12:34:28;;;;;;;5.35;3.90;;;9.20;79.80;;;;;;5033637;28;20026;-76
2021/11/06 12:36:55;;;;;;;7.28;4.40;;;9.20;79.80;;;;;;5034228;28;20033;-77
2021/11/06 12:39:55;;;;;;;5.82;3.90;;;9.20;79.80;;;;;;5034911;28;20022;-75
2021/11/06 12:42:24;;;;;;;5.18;4.43;;;9.30;80.00;;;;;;4974486;28;20060;-75
2021/11/06 12:44:59;;;;;;;4.28;3.22;;;9.50;79.20;;;;;;5034537;28;20537;-77
2021/11/06 12:47:28;;;;;;;5.10;3.78;;;9.60;78.90;;;;;;5034317;28;20030;-77
2021/11/06 12:49:55;;;;;;;3.83;3.00;;;9.70;78.10;;;;;;5036630;28;20027;-77
2021/11/06 12:52:24;;;;;;;4.22;3.40;;;9.70;77.70;;;;;;5035185;28;20044;-76
2021/11/06 12:54:57;;;;;;;4.03;3.33;;;9.90;77.70;;;;;;5033763;28;20111;-76
2021/11/06 12:57:35;;;;;;;4.93;4.20;;;10.10;77.50;;;;;;5015592;28;20036;-76